Time;durP1;ratioP1;P1;durP2;ratioP2;P2;SDS_P1;SDS_P2;PMS_P1;PMS_P2;Temp;Humidity;BMP_temperature;BMP_pressure;BME280_temperature;BME280_humidity;BME280_pressure;Samples;Min_cycle;Max_cycle;Signal;HPM_P1;HPM_P2
2023/08/31 00:01:01;;;;;;;11.85;3.42;;;15.00;99.90;;;;;;4969106;28;20054;-60
2023/08/31 00:03:28;;;;;;;5.30;2.63;;;14.90;99.90;;;;;;4969544;28;20513;-60
2023/08/31 00:05:56;;;;;;;6.15;2.75;;;14.90;99.90;;;;;;4968674;28;20130;-59
2023/08/31 00:08:23;;;;;;;6.07;2.40;;;14.90;99.90;;;;;;4969374;28;20101;-60
2023/08/31 00:11:00;;;;;;;6.03;2.42;;;14.90;99.90;;;;;;4968875;28;20047;-60
2023/08/31 00:13:27;;;;;;;8.02;2.45;;;14.90;99.90;;;;;;4969351;28;20093;-59
2023/08/31 00:15:57;;;;;;;6.43;2.65;;;14.90;99.90;;;;;;4968688;28;20426;-59
2023/08/31 00:18:24;;;;;;;8.70;3.15;;;14.90;99.90;;;;;;4969050;28;20138;-59
2023/08/31 00:20:51;;;;;;;8.85;2.22;;;14.90;99.90;;;;;;4967718;28;20070;-61
2023/08/31 00:23:18;;;;;;;6.82;2.22;;;15.00;99.90;;;;;;4969011;28;20133;-59
2023/08/31 00:25:47;;;;;;;5.22;2.15;;;14.90;99.90;;;;;;4968492;28;20498;-59
2023/08/31 00:28:18;;;;;;;6.47;2.38;;;14.90;99.90;;;;;;4968942;28;20042;-60
2023/08/31 00:30:45;;;;;;;9.02;2.95;;;14.90;99.90;;;;;;4967536;28;20046;-60
2023/08/31 00:33:12;;;;;;;6.63;2.97;;;14.80;99.90;;;;;;4969010;28;20146;-60
2023/08/31 00:35:45;;;;;;;6.28;2.72;;;14.80;99.90;;;;;;4968349;28;20557;-59
2023/08/31 00:38:13;;;;;;;6.43;2.50;;;14.70;99.90;;;;;;4969360;28;20055;-59
2023/08/31 00:40:44;;;;;;;6.28;2.28;;;14.60;99.90;;;;;;4968950;28;20074;-60
2023/08/31 00:43:12;;;;;;;10.48;2.22;;;14.60;99.90;;;;;;4973350;28;20055;-59
2023/08/31 00:45:40;;;;;;;8.52;2.75;;;14.60;99.90;;;;;;4968816;28;20054;-60
2023/08/31 00:48:08;;;;;;;7.88;2.22;;;14.60;99.90;;;;;;4963983;28;20087;-60
2023/08/31 00:50:35;;;;;;;6.90;2.30;;;14.60;99.90;;;;;;4972306;28;20141;-59
2023/08/31 00:53:03;;;;;;;7.22;2.33;;;14.40;99.90;;;;;;4973103;28;20050;-60
2023/08/31 00:55:30;;;;;;;6.32;2.65;;;14.30;99.90;;;;;;4972555;28;20046;-58
2023/08/31 00:57:58;;;;;;;7.40;2.97;;;14.20;99.90;;;;;;4972773;28;20042;-61
2023/08/31 01:00:24;;;;;;;5.15;2.28;;;14.10;99.90;;;;;;4955729;28;20047;-60
2023/08/31 01:03:12;;;;;;;14.90;3.10;;;14.10;99.90;;;;;;4955268;28;20051;-59
2023/08/31 01:06:09;;;;;;;5.13;1.98;;;14.10;99.90;;;;;;4972398;28;20055;-60
2023/08/31 01:08:36;;;;;;;5.20;2.60;;;14.20;99.90;;;;;;4971414;28;20094;-60
2023/08/31 01:11:08;;;;;;;5.22;2.38;;;14.20;99.90;;;;;;4972180;28;20070;-60
2023/08/31 01:13:34;;;;;;;5.07;2.63;;;14.20;99.90;;;;;;4969387;28;20101;-60
2023/08/31 01:16:04;;;;;;;5.40;2.08;;;14.20;99.90;;;;;;4954560;28;20138;-60
2023/08/31 01:18:32;;;;;;;8.88;2.30;;;14.20;99.90;;;;;;4969766;28;20129;-60
2023/08/31 01:21:16;;;;;;;6.40;2.45;;;14.20;99.90;;;;;;4972470;28;20097;-60
2023/08/31 01:23:46;;;;;;;;;;;14.20;99.90;;;;;;4972356;28;20039;-60
2023/08/31 01:26:13;;;;;;;6.55;2.35;;;14.20;99.90;;;;;;4970623;28;19949;-60
2023/08/31 01:28:40;;;;;;;8.50;2.50;;;14.10;99.90;;;;;;4972223;28;20320;-60
2023/08/31 01:31:07;;;;;;;8.07;3.20;;;14.20;99.90;;;;;;4632134;28;10000660;-59
2023/08/31 01:33:34;;;;;;;16.02;3.33;;;14.20;99.90;;;;;;4971984;28;20066;-60
2023/08/31 01:36:02;;;;;;;6.10;2.25;;;14.20;99.90;;;;;;4970413;28;20057;-62
2023/08/31 01:38:29;;;;;;;7.35;2.22;;;14.10;99.90;;;;;;4970744;28;20051;-60
2023/08/31 01:40:55;;;;;;;5.80;2.35;;;14.00;99.90;;;;;;4953788;28;20043;-59
2023/08/31 01:43:22;;;;;;;8.50;2.92;;;14.10;99.90;;;;;;4963544;28;20046;-60
2023/08/31 01:45:49;;;;;;;5.10;2.20;;;14.00;99.90;;;;;;4949220;28;20051;-59
2023/08/31 01:48:16;;;;;;;9.90;2.70;;;14.00;99.90;;;;;;4969067;28;20367;-60
2023/08/31 01:50:43;;;;;;;8.85;2.40;;;14.00;99.90;;;;;;4969518;28;20047;-59
2023/08/31 01:53:10;;;;;;;16.98;2.58;;;13.90;99.90;;;;;;4969528;28;20078;-60
2023/08/31 01:55:37;;;;;;;6.60;2.33;;;14.00;99.90;;;;;;4975690;28;20058;-60
2023/08/31 01:58:04;;;;;;;7.22;2.25;;;14.00;99.90;;;;;;4970135;28;20055;-60
2023/08/31 02:00:34;;;;;;;4.63;2.25;;;13.90;99.90;;;;;;4966429;28;20106;-61
2023/08/31 02:03:01;;;;;;;8.35;2.60;;;13.90;99.90;;;;;;4967120;28;20054;-60
2023/08/31 02:05:28;;;;;;;11.30;2.40;;;13.80;99.90;;;;;;4973468;28;20501;-59
2023/08/31 02:07:55;;;;;;;5.82;2.45;;;13.90;99.90;;;;;;4968900;28;20055;-60
2023/08/31 02:10:22;;;;;;;7.50;3.15;;;13.90;99.90;;;;;;4967838;28;20074;-60
2023/08/31 02:12:48;;;;;;;4.35;1.92;;;13.90;99.90;;;;;;4961104;28;20514;-60
2023/08/31 02:15:15;;;;;;;9.38;3.00;;;13.90;99.90;;;;;;4963456;28;20051;-59
2023/08/31 02:17:43;;;;;;;7.53;2.85;;;13.90;99.90;;;;;;4970415;28;20078;-60
2023/08/31 02:20:10;;;;;;;7.57;2.15;;;13.90;99.90;;;;;;4972457;28;20498;-59
2023/08/31 02:22:37;;;;;;;7.70;2.40;;;13.80;99.90;;;;;;4959161;28;20058;-60
2023/08/31 02:25:05;;;;;;;6.18;2.72;;;13.80;99.90;;;;;;4959154;28;20063;-60
2023/08/31 02:27:32;;;;;;;7.40;1.90;;;13.70;99.90;;;;;;4965825;28;20039;-60
2023/08/31 02:29:59;;;;;;;6.50;2.17;;;13.70;99.90;;;;;;4965398;28;20109;-60
2023/08/31 02:32:25;;;;;;;7.38;2.38;;;13.80;99.90;;;;;;4968206;28;20228;-59
2023/08/31 02:34:52;;;;;;;6.43;2.33;;;13.80;99.90;;;;;;4957034;28;20126;-60
2023/08/31 02:37:19;;;;;;;10.40;2.85;;;13.80;99.90;;;;;;4961026;28;20047;-60
2023/08/31 02:39:46;;;;;;;5.72;2.50;;;13.80;99.90;;;;;;4968937;28;20130;-60
2023/08/31 02:42:14;;;;;;;6.05;2.17;;;13.80;99.90;;;;;;4967167;28;20058;-60
2023/08/31 02:44:40;;;;;;;10.80;2.08;;;13.80;99.90;;;;;;4969962;28;20050;-60
2023/08/31 02:47:08;;;;;;;6.20;2.05;;;13.70;99.90;;;;;;4970295;28;20101;-60
2023/08/31 02:49:35;;;;;;;5.15;2.75;;;13.60;99.90;;;;;;4970541;28;20138;-60
2023/08/31 02:52:01;;;;;;;6.05;2.45;;;13.60;99.90;;;;;;4971080;28;20462;-60
2023/08/31 02:54:28;;;;;;;6.80;2.55;;;13.60;99.90;;;;;;4969701;28;20054;-60
2023/08/31 02:56:55;;;;;;;7.57;2.60;;;13.60;99.90;;;;;;4969592;28;20089;-60
2023/08/31 02:59:22;;;;;;;7.80;2.55;;;13.60;99.90;;;;;;4970220;28;20107;-59
2023/08/31 03:01:49;;;;;;;6.13;2.03;;;13.60;99.90;;;;;;4970077;28;20055;-60
2023/08/31 03:04:17;;;;;;;7.00;2.55;;;13.70;99.90;;;;;;4969268;28;20430;-60
2023/08/31 03:06:45;;;;;;;4.30;2.05;;;13.70;99.90;;;;;;4970352;28;20050;-59
2023/08/31 03:09:13;;;;;;;8.20;2.70;;;13.70;99.90;;;;;;4970113;28;20054;-60
2023/08/31 03:11:40;;;;;;;6.07;1.88;;;13.70;99.90;;;;;;4970245;28;20058;-60
2023/08/31 03:14:09;;;;;;;5.78;2.35;;;13.70;99.90;;;;;;4969643;28;20113;-60
2023/08/31 03:16:36;;;;;;;9.30;2.45;;;13.70;99.90;;;;;;4970056;28;20047;-60
2023/08/31 03:19:03;;;;;;;8.50;3.03;;;13.70;99.90;;;;;;4969753;28;20161;-59
2023/08/31 03:21:29;;;;;;;6.32;2.08;;;13.60;99.90;;;;;;4970376;28;20043;-60
2023/08/31 03:23:56;;;;;;;6.82;2.17;;;13.60;99.90;;;;;;4969892;28;20262;-58
2023/08/31 03:26:23;;;;;;;3.85;1.65;;;13.50;99.90;;;;;;4969807;28;20509;-60
2023/08/31 03:28:50;;;;;;;8.00;2.30;;;13.50;99.90;;;;;;4970243;28;20086;-60
2023/08/31 03:31:16;;;;;;;10.23;2.20;;;13.50;99.90;;;;;;4970098;28;20051;-60
2023/08/31 03:33:43;;;;;;;8.35;2.13;;;13.60;99.90;;;;;;4960519;28;20558;-59
2023/08/31 03:36:10;;;;;;;9.77;2.47;;;13.60;99.90;;;;;;4968843;28;20081;-60
2023/08/31 03:38:37;;;;;;;8.15;2.30;;;13.60;99.90;;;;;;4969988;28;20565;-60
2023/08/31 03:41:05;;;;;;;6.57;2.13;;;13.60;99.90;;;;;;4970054;28;20137;-59
2023/08/31 03:43:31;;;;;;;5.90;2.60;;;13.60;99.90;;;;;;4966735;28;20043;-60
2023/08/31 03:45:59;;;;;;;8.73;2.30;;;13.60;99.90;;;;;;4968921;28;20061;-60
2023/08/31 03:48:26;;;;;;;3.80;2.00;;;13.60;99.90;;;;;;4968513;28;20054;-60
2023/08/31 03:50:53;;;;;;;6.93;2.03;;;13.60;99.90;;;;;;4969589;28;20046;-60
2023/08/31 03:53:20;;;;;;;6.68;2.50;;;13.60;99.90;;;;;;4969736;28;20073;-60
2023/08/31 03:55:47;;;;;;;9.60;2.20;;;13.60;99.90;;;;;;4968889;28;20077;-60
2023/08/31 03:58:14;;;;;;;11.70;3.05;;;13.50;99.90;;;;;;4969921;28;20046;-60
2023/08/31 04:00:41;;;;;;;6.97;2.08;;;13.50;99.90;;;;;;4969661;28;20046;-60
2023/08/31 04:03:09;;;;;;;5.28;1.85;;;13.50;99.90;;;;;;4969531;28;20054;-60
2023/08/31 04:05:36;;;;;;;5.95;2.63;;;13.50;99.90;;;;;;4969133;28;20050;-60
2023/08/31 04:08:03;;;;;;;11.00;2.80;;;13.40;99.90;;;;;;4978198;28;20493;-60
2023/08/31 04:10:31;;;;;;;9.27;2.30;;;13.40;99.90;;;;;;4969239;28;20454;-59
2023/08/31 04:12:58;;;;;;;12.68;2.70;;;13.40;99.90;;;;;;4969691;28;20047;-59
2023/08/31 04:15:25;;;;;;;6.20;2.80;;;13.40;99.90;;;;;;4967748;28;20458;-59
2023/08/31 04:17:52;;;;;;;8.10;2.53;;;13.50;99.90;;;;;;4968235;28;20521;-59
2023/08/31 04:20:19;;;;;;;8.27;2.15;;;13.50;99.90;;;;;;4969193;28;20120;-60
2023/08/31 04:22:46;;;;;;;7.05;2.60;;;13.40;99.90;;;;;;4969070;28;20050;-59
2023/08/31 04:25:13;;;;;;;7.10;2.40;;;13.40;99.90;;;;;;4968421;28;20062;-59
2023/08/31 04:27:40;;;;;;;8.48;2.25;;;13.40;99.90;;;;;;4968878;28;20054;-60
2023/08/31 04:30:07;;;;;;;4.93;2.13;;;13.40;99.90;;;;;;4976872;28;20518;-60
2023/08/31 04:32:35;;;;;;;8.70;2.13;;;13.40;99.90;;;;;;4969255;28;20047;-59
2023/08/31 04:35:04;;;;;;;3.72;1.88;;;13.30;99.90;;;;;;4972881;28;20069;-59
2023/08/31 04:37:32;;;;;;;6.03;2.50;;;13.30;99.90;;;;;;4968522;28;20458;-58
2023/08/31 04:39:59;;;;;;;4.07;2.08;;;13.30;99.90;;;;;;4968884;28;20422;-59
2023/08/31 04:42:26;;;;;;;6.50;2.55;;;13.30;99.90;;;;;;4967828;28;20047;-59
2023/08/31 04:44:53;;;;;;;4.63;2.22;;;13.30;99.90;;;;;;4969519;28;20054;-60
2023/08/31 04:47:20;;;;;;;9.45;3.03;;;13.30;99.90;;;;;;4970658;28;20047;-60
2023/08/31 04:49:47;;;;;;;6.75;2.58;;;13.40;99.90;;;;;;4968776;28;20047;-60
2023/08/31 04:52:14;;;;;;;14.60;2.47;;;13.40;99.90;;;;;;4971531;28;20548;-60
2023/08/31 04:54:40;;;;;;;5.15;2.88;;;13.40;99.90;;;;;;4968469;28;20047;-59
2023/08/31 04:57:07;;;;;;;7.63;2.40;;;13.40;99.90;;;;;;4968492;28;20565;-60
2023/08/31 04:59:34;;;;;;;5.47;2.50;;;13.30;99.90;;;;;;4970812;28;20061;-60
2023/08/31 05:02:01;;;;;;;7.25;2.50;;;13.30;99.90;;;;;;4968120;28;20055;-60
2023/08/31 05:04:28;;;;;;;5.88;2.28;;;13.30;99.90;;;;;;4968951;28;20050;-60
2023/08/31 05:06:55;;;;;;;6.45;2.08;;;13.30;99.90;;;;;;4977819;28;20129;-60
2023/08/31 05:09:25;;;;;;;4.53;2.30;;;13.30;99.90;;;;;;4967581;28;20414;-59
2023/08/31 05:11:52;;;;;;;7.90;2.28;;;13.30;99.90;;;;;;4968664;28;20058;-59
2023/08/31 05:14:18;;;;;;;9.63;2.80;;;13.30;99.90;;;;;;4974735;28;20058;-60
2023/08/31 05:16:45;;;;;;;7.80;2.85;;;13.30;99.90;;;;;;4967491;28;20098;-59
2023/08/31 05:19:12;;;;;;;4.50;2.47;;;13.30;99.90;;;;;;4967962;28;20421;-59
2023/08/31 05:21:39;;;;;;;9.95;3.22;;;13.30;99.90;;;;;;4967857;28;20238;-59
2023/08/31 05:24:05;;;;;;;5.63;2.00;;;13.40;99.90;;;;;;4968428;28;20050;-59
2023/08/31 05:26:32;;;;;;;8.70;2.63;;;13.40;99.90;;;;;;4968433;28;20061;-60
2023/08/31 05:28:59;;;;;;;3.97;2.15;;;13.40;99.90;;;;;;4973560;28;20101;-59
2023/08/31 05:31:26;;;;;;;7.80;2.92;;;13.30;99.90;;;;;;4981244;28;20054;-59
2023/08/31 05:33:53;;;;;;;8.00;2.38;;;13.40;99.90;;;;;;4974327;28;20058;-59
2023/08/31 05:36:19;;;;;;;10.52;3.20;;;13.40;99.90;;;;;;4969096;28;20109;-60
2023/08/31 05:38:46;;;;;;;8.50;3.35;;;13.40;99.90;;;;;;4970342;28;20125;-60
2023/08/31 05:41:13;;;;;;;8.30;2.97;;;13.40;99.90;;;;;;4971974;28;20051;-59
2023/08/31 05:43:40;;;;;;;5.78;2.58;;;13.40;99.90;;;;;;4972197;28;20038;-59
2023/08/31 05:46:08;;;;;;;7.68;2.47;;;13.50;99.90;;;;;;4971053;28;20057;-60
2023/08/31 05:48:36;;;;;;;6.93;2.58;;;13.50;99.90;;;;;;4971149;28;20043;-59
2023/08/31 05:51:03;;;;;;;8.98;2.47;;;13.50;99.90;;;;;;4970598;28;20057;-59
2023/08/31 05:53:31;;;;;;;6.43;2.22;;;13.50;99.90;;;;;;4970653;28;20050;-59
2023/08/31 05:56:03;;;;;;;7.07;2.47;;;13.50;99.90;;;;;;4972537;28;20050;-59
2023/08/31 05:58:34;;;;;;;7.53;2.58;;;13.60;99.90;;;;;;4972073;28;20051;-60
2023/08/31 06:01:02;;;;;;;10.38;2.45;;;13.50;99.90;;;;;;4972033;28;20227;-59
2023/08/31 06:03:29;;;;;;;8.27;3.03;;;13.60;99.90;;;;;;4971303;28;20085;-59
2023/08/31 06:05:56;;;;;;;5.47;1.92;;;13.60;99.90;;;;;;4973658;28;20054;-59
2023/08/31 06:08:23;;;;;;;5.00;2.30;;;13.70;99.90;;;;;;4970770;28;20043;-60
2023/08/31 06:10:50;;;;;;;8.65;2.63;;;13.70;99.90;;;;;;4971242;28;20509;-59
2023/08/31 06:13:17;;;;;;;7.50;2.58;;;13.80;99.90;;;;;;4976110;28;20069;-59
2023/08/31 06:15:47;;;;;;;9.55;2.83;;;13.80;99.90;;;;;;4970646;28;20046;-59
2023/08/31 06:18:14;;;;;;;8.88;3.50;;;13.90;99.90;;;;;;4970186;28;20395;-59
2023/08/31 06:20:41;;;;;;;8.00;2.55;;;13.90;99.90;;;;;;4970158;28;20082;-59
2023/08/31 06:23:09;;;;;;;9.38;3.10;;;13.90;99.90;;;;;;4976720;28;20050;-59
2023/08/31 06:25:37;;;;;;;8.30;2.72;;;14.00;99.90;;;;;;4970396;28;20051;-60
2023/08/31 06:28:08;;;;;;;6.43;2.30;;;14.10;99.90;;;;;;4968693;28;20051;-66
2023/08/31 06:30:35;;;;;;;7.45;3.35;;;14.10;99.90;;;;;;4967310;28;20259;-58
2023/08/31 06:33:02;;;;;;;6.50;2.60;;;14.20;99.90;;;;;;4970772;28;20462;-57
2023/08/31 06:35:29;;;;;;;13.88;3.40;;;14.20;99.90;;;;;;4970114;28;20125;-58
2023/08/31 06:37:56;;;;;;;7.20;2.47;;;14.30;99.90;;;;;;4967775;28;20529;-59
2023/08/31 06:40:22;;;;;;;7.32;2.58;;;14.40;99.90;;;;;;4968518;28;20371;-58
2023/08/31 06:42:49;;;;;;;5.07;2.47;;;14.40;99.90;;;;;;4951427;28;20105;-59
2023/08/31 06:45:16;;;;;;;9.85;3.15;;;14.40;99.90;;;;;;4967073;28;20398;-58
2023/08/31 06:47:43;;;;;;;6.57;2.55;;;14.50;99.90;;;;;;4968743;28;20047;-60
2023/08/31 06:50:10;;;;;;;6.20;2.53;;;14.40;99.90;;;;;;4967987;28;20437;-58
2023/08/31 06:52:37;;;;;;;7.25;2.60;;;14.50;99.90;;;;;;4969744;28;20047;-58
2023/08/31 06:55:06;;;;;;;8.23;2.58;;;14.60;99.90;;;;;;4968814;28;20098;-58
2023/08/31 06:57:32;;;;;;;12.32;2.42;;;14.60;99.90;;;;;;4969820;28;20085;-57
2023/08/31 06:59:59;;;;;;;8.15;2.33;;;14.50;99.90;;;;;;4953226;28;20054;-59
2023/08/31 07:02:26;;;;;;;4.40;2.13;;;14.60;99.90;;;;;;4970705;28;20054;-57
2023/08/31 07:04:53;;;;;;;6.38;2.50;;;14.60;99.90;;;;;;4948749;28;20081;-58
2023/08/31 07:07:20;;;;;;;4.75;2.15;;;14.70;99.90;;;;;;4969121;28;20051;-56
2023/08/31 07:09:50;;;;;;;6.80;2.85;;;14.80;99.90;;;;;;4953738;28;20047;-57
2023/08/31 07:12:17;;;;;;;4.72;2.40;;;14.80;99.90;;;;;;4970306;28;20050;-55
2023/08/31 07:14:44;;;;;;;8.40;2.17;;;14.90;99.90;;;;;;4962790;28;20133;-59
2023/08/31 07:17:11;;;;;;;6.90;2.83;;;14.90;99.90;;;;;;4954166;28;20565;-57
2023/08/31 07:19:38;;;;;;;7.80;2.58;;;14.90;99.90;;;;;;4969654;28;20081;-55
2023/08/31 07:22:06;;;;;;;9.32;2.65;;;14.90;99.90;;;;;;4952763;28;20066;-58
2023/08/31 07:24:34;;;;;;;5.93;2.40;;;15.00;99.90;;;;;;4969720;28;20425;-58
2023/08/31 07:27:04;;;;;;;8.40;2.88;;;15.10;99.90;;;;;;4969507;28;20055;-57
2023/08/31 07:29:31;;;;;;;7.90;3.13;;;15.20;99.90;;;;;;4969781;28;20051;-54
2023/08/31 07:31:58;;;;;;;5.22;2.90;;;15.20;99.90;;;;;;4970066;28;20074;-59
2023/08/31 07:34:25;;;;;;;10.45;4.20;;;15.30;99.90;;;;;;4968690;28;20426;-58
2023/08/31 07:36:52;;;;;;;5.90;2.90;;;15.30;99.90;;;;;;4968085;28;20073;-57
2023/08/31 07:39:18;;;;;;;10.38;2.58;;;15.30;99.90;;;;;;4968739;28;20054;-58
2023/08/31 07:41:45;;;;;;;6.22;2.97;;;15.40;99.90;;;;;;4968784;28;20101;-56
2023/08/31 07:44:12;;;;;;;10.00;3.28;;;15.50;99.90;;;;;;4968866;28;20457;-58
2023/08/31 07:46:39;;;;;;;8.00;3.50;;;15.50;99.90;;;;;;4968899;28;20047;-57
2023/08/31 07:49:06;;;;;;;8.88;3.00;;;15.50;99.90;;;;;;4967763;28;20133;-56
2023/08/31 07:51:33;;;;;;;9.07;3.53;;;15.60;99.90;;;;;;4959726;28;20046;-57
2023/08/31 07:54:01;;;;;;;7.35;3.08;;;15.70;99.90;;;;;;4968011;28;20039;-59
2023/08/31 07:56:27;;;;;;;17.08;3.42;;;15.80;99.90;;;;;;4966863;28;20046;-58
2023/08/31 07:58:54;;;;;;;8.30;2.70;;;15.90;99.90;;;;;;4967601;28;20130;-56
2023/08/31 08:01:21;;;;;;;7.32;2.53;;;16.00;99.90;;;;;;4968159;28;20042;-60
2023/08/31 08:03:49;;;;;;;12.70;2.90;;;16.10;99.90;;;;;;4968555;28;20040;-58
2023/08/31 08:06:16;;;;;;;10.98;2.42;;;16.20;99.90;;;;;;4966384;28;20051;-58
2023/08/31 08:08:43;;;;;;;6.63;2.30;;;16.20;99.90;;;;;;4966142;28;20510;-57
2023/08/31 08:11:10;;;;;;;13.98;3.78;;;16.10;99.90;;;;;;4971288;28;20050;-56
2023/08/31 08:13:37;;;;;;;7.68;2.35;;;16.20;99.90;;;;;;4968470;28;20051;-56
2023/08/31 08:16:03;;;;;;;9.25;3.13;;;16.30;99.90;;;;;;4968124;28;20047;-56
2023/08/31 08:18:30;;;;;;;7.15;2.10;;;16.30;99.90;;;;;;4966981;28;20050;-58
2023/08/31 08:20:58;;;;;;;10.48;2.50;;;16.30;99.90;;;;;;4968515;28;20528;-58
2023/08/31 08:23:39;;;;;;;4.75;2.25;;;16.30;99.90;;;;;;4968382;28;20054;-59
2023/08/31 08:26:07;;;;;;;8.25;2.60;;;16.40;99.90;;;;;;4965908;28;20059;-57
2023/08/31 08:28:33;;;;;;;5.75;2.40;;;16.50;99.90;;;;;;4968281;28;20050;-56
2023/08/31 08:31:03;;;;;;;5.68;1.80;;;16.50;99.90;;;;;;4950644;28;20064;-58
2023/08/31 08:33:31;;;;;;;4.68;1.80;;;16.60;99.90;;;;;;4952324;28;20046;-58
2023/08/31 08:35:58;;;;;;;3.65;1.70;;;16.70;99.90;;;;;;4969054;28;20042;-56
2023/08/31 08:38:25;;;;;;;4.30;2.00;;;16.70;99.90;;;;;;4970758;28;20111;-58
2023/08/31 08:40:52;;;;;;;8.05;2.25;;;16.80;99.90;;;;;;4951025;28;20490;-57
2023/08/31 08:43:28;;;;;;;4.55;1.77;;;16.80;99.90;;;;;;4968297;28;20413;-58
2023/08/31 08:45:55;;;;;;;6.57;1.92;;;16.90;99.90;;;;;;4968069;28;20039;-57
2023/08/31 08:48:22;;;;;;;8.73;1.83;;;16.90;99.90;;;;;;4951919;28;20042;-57
2023/08/31 08:50:49;;;;;;;5.82;1.50;;;16.90;99.90;;;;;;4954120;28;20043;-58
2023/08/31 08:53:15;;;;;;;6.30;1.90;;;17.00;99.90;;;;;;4951465;28;20051;-58
2023/08/31 08:55:42;;;;;;;6.90;2.08;;;17.10;99.90;;;;;;4966737;28;20498;-58
2023/08/31 08:58:09;;;;;;;7.55;2.00;;;17.10;99.90;;;;;;4969400;28;20086;-58
2023/08/31 09:00:36;;;;;;;6.15;2.28;;;17.20;99.90;;;;;;4968422;28;20202;-57
2023/08/31 09:03:03;;;;;;;5.68;1.42;;;17.20;99.90;;;;;;4953389;28;20058;-57
2023/08/31 09:05:34;;;;;;;7.43;1.70;;;17.20;99.90;;;;;;4954126;28;20051;-55
2023/08/31 09:08:01;;;;;;;5.25;1.77;;;17.20;99.90;;;;;;4971540;28;20062;-59
2023/08/31 09:10:34;;;;;;;7.22;2.15;;;17.20;99.90;;;;;;4971546;28;20065;-59
2023/08/31 09:13:00;;;;;;;5.40;1.50;;;17.20;99.90;;;;;;4971561;28;20250;-58
2023/08/31 09:15:36;;;;;;;7.15;1.58;;;17.10;99.90;;;;;;4952411;28;20506;-58
2023/08/31 09:18:04;;;;;;;3.70;1.50;;;17.10;99.90;;;;;;4969762;28;20055;-59
2023/08/31 09:20:32;;;;;;;9.88;1.60;;;17.20;99.90;;;;;;4970996;28;20451;-59
2023/08/31 09:22:59;;;;;;;7.28;1.67;;;17.20;99.90;;;;;;4971805;28;20039;-59
2023/08/31 09:25:26;;;;;;;7.00;2.20;;;17.20;99.90;;;;;;4971967;28;20128;-59
2023/08/31 09:27:52;;;;;;;6.60;1.58;;;17.10;99.90;;;;;;4971676;28;20168;-59
2023/08/31 09:30:19;;;;;;;3.33;1.45;;;16.90;99.90;;;;;;4970898;28;20054;-59
2023/08/31 09:32:52;;;;;;;6.53;1.50;;;16.80;99.90;;;;;;4937291;28;20414;-59
2023/08/31 09:35:19;;;;;;;8.80;1.83;;;16.70;99.90;;;;;;4968661;28;20101;-59
2023/08/31 09:37:57;;;;;;;8.30;2.05;;;16.60;99.90;;;;;;4951710;28;20046;-58
2023/08/31 09:40:24;;;;;;;7.03;1.88;;;16.50;99.90;;;;;;4971351;28;20259;-57
2023/08/31 09:42:51;;;;;;;6.82;2.28;;;16.50;99.90;;;;;;4970138;28;20046;-58
2023/08/31 09:45:24;;;;;;;9.40;2.05;;;16.50;99.90;;;;;;4970035;28;20452;-58
2023/08/31 09:48:09;;;;;;;8.35;2.15;;;16.40;99.90;;;;;;4969657;28;20173;-58
2023/08/31 09:50:36;;;;;;;3.75;2.00;;;16.50;99.90;;;;;;4952693;28;20047;-59
2023/08/31 09:53:04;;;;;;;4.20;1.90;;;16.40;99.90;;;;;;4950882;28;20054;-57
2023/08/31 09:55:34;;;;;;;7.03;2.00;;;16.40;99.90;;;;;;4967609;28;20049;-59
2023/08/31 09:58:01;;;;;;;6.85;2.40;;;16.20;99.90;;;;;;4935219;28;20043;-57
2023/08/31 10:00:41;;;;;;;6.70;3.60;;;16.10;99.90;;;;;;4954018;28;20053;-58
2023/08/31 10:03:08;;;;;;;9.13;4.78;;;16.00;99.90;;;;;;4969943;28;20073;-59
2023/08/31 10:05:35;;;;;;;9.55;5.53;;;16.00;99.90;;;;;;4972700;28;20057;-58
2023/08/31 10:08:02;;;;;;;10.55;4.53;;;16.10;99.90;;;;;;4971413;28;20053;-59
2023/08/31 10:10:30;;;;;;;7.18;3.88;;;16.10;99.90;;;;;;4978142;28;20222;-59
2023/08/31 10:12:56;;;;;;;8.18;3.90;;;16.00;99.90;;;;;;4971822;28;20043;-59
2023/08/31 10:15:23;;;;;;;7.43;3.85;;;15.90;99.90;;;;;;4935717;28;20039;-60
2023/08/31 10:17:50;;;;;;;8.63;3.53;;;16.00;99.90;;;;;;4956511;28;20545;-58
2023/08/31 10:20:17;;;;;;;9.63;3.40;;;16.00;99.90;;;;;;4969993;28;20038;-58
2023/08/31 10:22:44;;;;;;;6.50;2.97;;;16.00;99.90;;;;;;4970579;28;20051;-60
2023/08/31 10:25:11;;;;;;;4.88;2.67;;;16.00;99.90;;;;;;4969471;28;20050;-59
2023/08/31 10:27:39;;;;;;;9.88;4.45;;;16.00;99.90;;;;;;4971119;28;20403;-58
2023/08/31 10:30:25;;;;;;;9.75;4.07;;;16.10;99.90;;;;;;4970677;28;20043;-59
2023/08/31 10:33:08;;;;;;;8.90;4.50;;;16.10;99.90;;;;;;4953751;28;20057;-60
2023/08/31 10:35:55;;;;;;;10.43;4.30;;;16.30;99.90;;;;;;4969186;28;20210;-59
2023/08/31 10:38:32;;;;;;;8.98;4.53;;;16.50;99.90;;;;;;4977684;28;20422;-58
2023/08/31 10:41:21;;;;;;;11.27;4.70;;;16.60;99.90;;;;;;4972757;28;20486;-59
2023/08/31 10:43:51;;;;;;;12.55;4.80;;;16.70;99.90;;;;;;4970684;28;20042;-59
2023/08/31 10:46:32;;;;;;;8.98;4.55;;;16.80;99.90;;;;;;4972499;28;20151;-58
2023/08/31 10:49:11;;;;;;;11.48;4.18;;;16.90;99.90;;;;;;4974414;28;20137;-59
2023/08/31 10:51:39;;;;;;;7.50;3.25;;;17.00;99.90;;;;;;4973748;28;20057;-59
2023/08/31 10:54:20;;;;;;;8.02;3.78;;;17.00;99.90;;;;;;4969377;28;20058;-60
2023/08/31 10:57:08;;;;;;;7.85;3.45;;;17.20;99.90;;;;;;4962559;28;20039;-59
2023/08/31 10:59:45;;;;;;;10.00;2.58;;;17.40;99.90;;;;;;4971992;28;20486;-58
2023/08/31 11:02:33;;;;;;;9.35;2.88;;;17.60;99.90;;;;;;4968778;28;20051;-59
2023/08/31 11:05:18;;;;;;;11.77;4.28;;;17.80;99.90;;;;;;4969931;28;20490;-59
2023/08/31 11:07:49;;;;;;;9.57;3.30;;;17.90;99.90;;;;;;4970313;28;20046;-59
2023/08/31 11:10:17;;;;;;;7.45;2.40;;;18.00;99.90;;;;;;4971402;28;20466;-59
2023/08/31 11:12:48;;;;;;;11.13;2.88;;;18.00;99.90;;;;;;4977385;28;20138;-59
2023/08/31 11:15:17;;;;;;;6.53;2.75;;;18.10;99.90;;;;;;4968453;28;20054;-59
2023/08/31 11:17:44;;;;;;;5.90;2.85;;;18.10;99.90;;;;;;4970415;28;20078;-59
2023/08/31 11:20:17;;;;;;;6.03;2.15;;;18.00;99.90;;;;;;4969737;28;20542;-59
2023/08/31 11:22:45;;;;;;;;;;;18.00;99.90;;;;;;4970315;28;20415;-59
2023/08/31 11:25:13;;;;;;;5.40;2.50;;;18.00;99.90;;;;;;4966759;28;20008;-59
2023/08/31 11:27:40;;;;;;;6.07;2.53;;;18.00;99.90;;;;;;4965345;28;20398;-60
2023/08/31 11:30:14;;;;;;;8.23;3.03;;;18.00;99.90;;;;;;4978656;28;20051;-59
2023/08/31 11:32:48;;;;;;;5.57;2.50;;;17.90;99.90;;;;;;4952465;28;20053;-58
2023/08/31 11:35:18;;;;;;;8.60;2.10;;;18.00;99.90;;;;;;4968369;28;20046;-60
2023/08/31 11:37:50;;;;;;;4.75;2.45;;;18.00;99.90;;;;;;4969593;28;20054;-60
2023/08/31 11:40:17;;;;;;;11.45;2.10;;;18.00;99.90;;;;;;4969806;28;20047;-59
2023/08/31 11:42:44;;;;;;;3.90;1.90;;;18.10;99.90;;;;;;4969346;28;20061;-59
2023/08/31 11:45:11;;;;;;;9.93;2.15;;;18.10;99.90;;;;;;4968244;28;20179;-59
2023/08/31 11:47:39;;;;;;;9.05;2.13;;;18.20;99.90;;;;;;4952442;28;20152;-59
2023/08/31 11:50:06;;;;;;;17.52;2.80;;;18.30;99.90;;;;;;4968867;28;20049;-59
2023/08/31 11:52:33;;;;;;;9.13;2.05;;;18.40;99.90;;;;;;4952083;28;20114;-60
2023/08/31 11:55:00;;;;;;;5.45;2.15;;;18.50;99.90;;;;;;4952371;28;20515;-59
2023/08/31 11:57:28;;;;;;;6.03;1.95;;;18.60;99.90;;;;;;4954914;28;20050;-60
2023/08/31 11:59:55;;;;;;;9.88;2.42;;;18.80;99.90;;;;;;4969745;28;20490;-59
2023/08/31 12:02:22;;;;;;;8.93;2.85;;;18.80;99.90;;;;;;4968958;28;20358;-59
2023/08/31 12:04:49;;;;;;;5.82;1.80;;;18.70;99.90;;;;;;4969656;28;20047;-59
2023/08/31 12:07:17;;;;;;;7.05;2.42;;;18.80;99.90;;;;;;4971860;28;20142;-60
2023/08/31 12:09:45;;;;;;;4.10;1.60;;;18.90;99.90;;;;;;4968818;28;20057;-59
2023/08/31 12:12:20;;;;;;;11.20;2.90;;;18.90;99.90;;;;;;4969024;28;20417;-59
2023/08/31 12:14:47;;;;;;;4.22;1.77;;;19.00;99.90;;;;;;4969762;28;20053;-59
2023/08/31 12:17:14;;;;;;;6.82;2.17;;;19.00;99.90;;;;;;4967893;28;20387;-59
2023/08/31 12:19:40;;;;;;;5.85;1.70;;;18.90;99.90;;;;;;4952018;28;20047;-60
2023/08/31 12:22:12;;;;;;;9.65;2.38;;;19.00;99.90;;;;;;4968893;28;20058;-60
2023/08/31 12:24:43;;;;;;;6.15;2.35;;;18.90;99.90;;;;;;4968863;28;20051;-59
2023/08/31 12:27:09;;;;;;;4.18;2.20;;;18.70;99.90;;;;;;4968791;28;20102;-59
2023/08/31 12:29:36;;;;;;;11.40;2.85;;;18.80;99.90;;;;;;4977070;28;20062;-58
2023/08/31 12:32:04;;;;;;;9.02;2.60;;;18.80;99.90;;;;;;4968559;28;20054;-59
2023/08/31 12:34:32;;;;;;;6.05;2.90;;;18.80;99.90;;;;;;4970211;28;20781;-60
2023/08/31 12:37:02;;;;;;;8.45;2.55;;;18.70;99.90;;;;;;4967474;28;20105;-59
2023/08/31 12:39:29;;;;;;;8.95;2.28;;;18.60;99.90;;;;;;4965990;28;20031;-59
2023/08/31 12:41:56;;;;;;;7.10;2.60;;;18.60;99.90;;;;;;4967694;28;20086;-59
2023/08/31 12:44:38;;;;;;;10.02;2.60;;;18.50;99.90;;;;;;4965024;28;20042;-59
2023/08/31 12:47:05;;;;;;;12.85;2.92;;;18.40;99.90;;;;;;4968538;28;20055;-59
2023/08/31 12:49:32;;;;;;;3.95;1.67;;;18.50;99.90;;;;;;4968718;28;20057;-59
2023/08/31 12:51:59;;;;;;;12.13;3.58;;;18.50;99.90;;;;;;4968841;28;20406;-59